createdAt,value
2022-08-21T00:00:58.464Z,100.00
2022-08-21T00:03:26.739Z,100.00
2022-08-21T00:05:54.341Z,100.00
2022-08-21T00:08:23.482Z,100.00
2022-08-21T00:10:51.530Z,100.00
2022-08-21T00:13:21.427Z,100.00
2022-08-21T00:15:50.483Z,100.00
2022-08-21T00:18:20.185Z,100.00
2022-08-21T00:20:48.791Z,100.00
2022-08-21T00:23:16.562Z,100.00
2022-08-21T00:25:46.142Z,100.00
2022-08-21T00:28:14.925Z,100.00
2022-08-21T00:30:43.203Z,100.00
2022-08-21T00:33:11.679Z,100.00
2022-08-21T00:35:42.952Z,100.00
2022-08-21T00:38:11.527Z,100.00
2022-08-21T00:40:43.459Z,100.00
2022-08-21T00:43:15.765Z,100.00
2022-08-21T00:45:43.470Z,100.00
2022-08-21T00:48:11.002Z,100.00
2022-08-21T00:50:44.031Z,100.00
2022-08-21T00:53:13.411Z,100.00
2022-08-21T00:55:41.879Z,100.00
2022-08-21T00:58:13.654Z,100.00
2022-08-21T01:00:43.373Z,100.00
2022-08-21T01:03:13.992Z,100.00
2022-08-21T01:05:42.653Z,100.00
2022-08-21T01:08:11.128Z,100.00
2022-08-21T01:10:39.286Z,100.00
2022-08-21T01:13:10.763Z,100.00
2022-08-21T01:15:43.966Z,100.00
2022-08-21T01:18:12.868Z,100.00
2022-08-21T01:20:45.209Z,100.00
2022-08-21T01:23:15.306Z,100.00
2022-08-21T01:25:43.443Z,100.00
2022-08-21T01:28:14.948Z,100.00
2022-08-21T01:30:44.967Z,100.00
2022-08-21T01:33:12.926Z,100.00
2022-08-21T01:35:40.540Z,100.00
2022-08-21T01:38:08.064Z,100.00
2022-08-21T01:40:37.311Z,100.00
2022-08-21T01:43:04.881Z,100.00
2022-08-21T01:45:32.560Z,100.00
2022-08-21T01:48:00.126Z,100.00
2022-08-21T01:50:27.634Z,100.00
2022-08-21T01:52:55.136Z,100.00
2022-08-21T01:55:23.863Z,100.00
2022-08-21T01:57:52.761Z,100.00
2022-08-21T02:00:23.682Z,100.00
2022-08-21T02:02:51.945Z,100.00
2022-08-21T02:05:20.452Z,100.00
2022-08-21T02:07:50.836Z,100.00
2022-08-21T02:10:21.965Z,100.00
2022-08-21T02:12:50.585Z,100.00
2022-08-21T02:15:20.404Z,100.00
2022-08-21T02:17:51.373Z,100.00
2022-08-21T02:20:22.273Z,100.00
2022-08-21T02:22:50.453Z,100.00
2022-08-21T02:25:18.607Z,100.00
2022-08-21T02:27:48.536Z,100.00
2022-08-21T02:30:18.110Z,100.00
2022-08-21T02:32:46.965Z,100.00
2022-08-21T02:35:14.695Z,100.00
2022-08-21T02:37:48.226Z,100.00
2022-08-21T02:40:16.308Z,100.00
2022-08-21T02:42:44.690Z,100.00
2022-08-21T02:45:13.224Z,100.00
2022-08-21T02:47:40.874Z,100.00
2022-08-21T02:50:10.166Z,100.00
2022-08-21T02:52:37.846Z,100.00
2022-08-21T02:55:06.167Z,100.00
2022-08-21T02:57:33.704Z,100.00
2022-08-21T03:00:01.279Z,100.00
2022-08-21T03:02:28.812Z,100.00
2022-08-21T03:04:56.619Z,100.00
2022-08-21T03:07:25.558Z,100.00
2022-08-21T03:09:55.514Z,100.00
2022-08-21T03:12:23.661Z,100.00
2022-08-21T03:14:51.153Z,100.00
2022-08-21T03:17:18.759Z,100.00
2022-08-21T03:19:57.484Z,100.00
2022-08-21T03:22:27.073Z,100.00
2022-08-21T03:24:54.811Z,100.00
2022-08-21T03:27:22.428Z,100.00
2022-08-21T03:29:50.872Z,100.00
2022-08-21T03:32:18.388Z,100.00
2022-08-21T03:34:46.070Z,100.00
2022-08-21T03:37:15.782Z,100.00
2022-08-21T03:39:45.655Z,100.00
2022-08-21T03:42:13.621Z,100.00
2022-08-21T03:44:41.442Z,100.00
2022-08-21T03:47:08.974Z,100.00
2022-08-21T03:49:36.482Z,100.00
2022-08-21T03:52:05.370Z,100.00
2022-08-21T03:54:33.449Z,100.00
2022-08-21T03:57:03.856Z,100.00
2022-08-21T03:59:31.396Z,100.00
2022-08-21T04:02:01.630Z,100.00
2022-08-21T04:04:30.265Z,100.00
2022-08-21T04:06:58.598Z,100.00
2022-08-21T04:09:27.378Z,100.00
2022-08-21T04:11:55.498Z,100.00
2022-08-21T04:14:24.542Z,100.00
2022-08-21T04:16:52.039Z,100.00
2022-08-21T04:19:19.550Z,100.00
2022-08-21T04:21:47.043Z,100.00
2022-08-21T04:24:16.700Z,100.00
2022-08-21T04:26:44.292Z,100.00
2022-08-21T04:29:12.328Z,100.00
2022-08-21T04:31:41.154Z,100.00
2022-08-21T04:34:08.682Z,100.00
2022-08-21T04:36:36.884Z,100.00
2022-08-21T04:39:04.731Z,100.00
2022-08-21T04:41:32.609Z,100.00
2022-08-21T04:44:00.266Z,100.00
2022-08-21T04:46:27.747Z,100.00
2022-08-21T04:48:57.020Z,100.00
2022-08-21T04:51:27.538Z,100.00
2022-08-21T04:54:01.740Z,100.00
2022-08-21T04:56:33.779Z,100.00
2022-08-21T04:59:04.715Z,100.00
2022-08-21T05:01:36.226Z,100.00
2022-08-21T05:04:07.611Z,100.00
2022-08-21T05:06:38.969Z,100.00
2022-08-21T05:09:10.216Z,100.00
2022-08-21T05:11:38.991Z,100.00
2022-08-21T05:14:06.496Z,100.00
2022-08-21T05:16:36.915Z,100.00
2022-08-21T05:19:07.442Z,100.00
2022-08-21T05:21:35.301Z,100.00
2022-08-21T05:24:03.088Z,100.00
2022-08-21T05:26:30.824Z,100.00
2022-08-21T05:28:58.463Z,100.00
2022-08-21T05:31:26.026Z,100.00
2022-08-21T05:33:53.587Z,100.00
2022-08-21T05:36:25.150Z,100.00
2022-08-21T05:38:52.679Z,100.00
2022-08-21T05:41:20.186Z,100.00
2022-08-21T05:43:47.704Z,100.00
2022-08-21T05:46:15.316Z,100.00
2022-08-21T05:48:42.876Z,100.00
2022-08-21T05:51:12.316Z,100.00
2022-08-21T05:53:44.012Z,100.00
2022-08-21T05:56:12.826Z,100.00
2022-08-21T05:58:41.066Z,100.00
2022-08-21T06:01:09.797Z,100.00
2022-08-21T06:03:40.091Z,100.00
2022-08-21T06:06:08.312Z,100.00
2022-08-21T06:08:36.168Z,100.00
2022-08-21T06:11:07.570Z,100.00
2022-08-21T06:13:35.651Z,100.00
2022-08-21T06:16:07.070Z,100.00
2022-08-21T06:18:34.611Z,100.00
2022-08-21T06:21:02.252Z,100.00
2022-08-21T06:23:32.831Z,100.00
2022-08-21T06:26:01.439Z,100.00
2022-08-21T06:28:31.151Z,100.00
2022-08-21T06:30:58.763Z,100.00
2022-08-21T06:33:29.316Z,100.00
2022-08-21T06:36:00.942Z,100.00
2022-08-21T06:38:28.462Z,100.00
2022-08-21T06:40:56.477Z,100.00
2022-08-21T06:43:39.460Z,100.00
2022-08-21T06:46:09.530Z,100.00
2022-08-21T06:48:37.271Z,100.00
2022-08-21T06:51:04.942Z,100.00
2022-08-21T06:53:32.476Z,100.00
2022-08-21T06:56:00.229Z,100.00
2022-08-21T06:58:27.814Z,100.00
2022-08-21T07:01:00.106Z,100.00
2022-08-21T07:03:31.884Z,100.00
2022-08-21T07:05:59.566Z,100.00
2022-08-21T07:08:28.344Z,100.00
2022-08-21T07:10:57.942Z,100.00
2022-08-21T07:13:25.516Z,100.00
2022-08-21T07:15:53.180Z,100.00
2022-08-21T07:18:21.057Z,100.00
2022-08-21T07:20:50.196Z,100.00
2022-08-21T07:23:24.768Z,87.97
2022-08-21T07:25:52.418Z,79.51
2022-08-21T07:28:20.219Z,77.12
2022-08-21T07:30:48.308Z,68.05
2022-08-21T07:33:15.804Z,62.97
2022-08-21T07:35:43.312Z,60.76
2022-08-21T07:38:12.216Z,59.21
2022-08-21T07:40:39.766Z,57.69
2022-08-21T07:43:07.539Z,67.10
2022-08-21T07:45:35.070Z,100.00
2022-08-21T07:48:02.636Z,100.00
2022-08-21T07:50:30.244Z,100.00
2022-08-21T07:52:57.849Z,100.00
2022-08-21T07:55:27.064Z,100.00
2022-08-21T07:57:54.561Z,100.00
2022-08-21T08:00:28.747Z,100.00
2022-08-21T08:02:57.625Z,100.00
2022-08-21T08:05:27.819Z,100.00
2022-08-21T08:07:56.020Z,100.00
2022-08-21T08:10:24.543Z,100.00
2022-08-21T08:12:55.445Z,100.00
2022-08-21T08:15:28.216Z,100.00
2022-08-21T08:17:56.316Z,100.00
2022-08-21T08:20:25.987Z,100.00
2022-08-21T08:22:53.962Z,100.00
2022-08-21T08:25:24.258Z,100.00
2022-08-21T08:27:53.093Z,100.00
2022-08-21T08:30:23.432Z,100.00
2022-08-21T08:32:51.438Z,100.00
2022-08-21T08:35:22.352Z,95.81
2022-08-21T08:37:52.751Z,85.19
2022-08-21T08:40:24.496Z,77.90
2022-08-21T08:42:53.467Z,88.39
2022-08-21T08:45:25.143Z,94.60
2022-08-21T08:47:58.793Z,97.83
2022-08-21T08:50:33.446Z,97.92
2022-08-21T08:53:06.071Z,96.61
2022-08-21T08:55:37.614Z,86.66
2022-08-21T08:58:06.919Z,70.71
2022-08-21T09:00:35.108Z,70.02
2022-08-21T09:03:04.642Z,67.71
2022-08-21T09:05:42.099Z,67.75
2022-08-21T09:08:30.284Z,59.94
2022-08-21T09:11:04.952Z,54.64
2022-08-21T09:13:45.376Z,48.51
2022-08-21T09:16:22.993Z,44.01
2022-08-21T09:19:01.970Z,46.94
2022-08-21T09:21:41.948Z,53.00
2022-08-21T09:24:24.831Z,54.96
2022-08-21T09:26:59.344Z,56.55
2022-08-21T09:29:31.951Z,58.41
2022-08-21T09:31:59.455Z,56.35
2022-08-21T09:34:28.784Z,62.62
2022-08-21T09:36:57.564Z,65.17
2022-08-21T09:39:28.143Z,72.28
2022-08-21T09:42:00.304Z,72.75
2022-08-21T09:44:32.733Z,71.29
2022-08-21T09:47:00.279Z,80.39
2022-08-21T09:49:32.646Z,99.58
2022-08-21T09:52:01.840Z,100.00
2022-08-21T09:54:33.318Z,97.68
2022-08-21T09:57:24.800Z,100.00
2022-08-21T09:59:53.722Z,100.00
2022-08-21T10:02:28.861Z,100.00
2022-08-21T10:04:59.623Z,100.00
2022-08-21T10:07:29.963Z,88.93
2022-08-21T10:10:03.154Z,97.83
2022-08-21T10:12:38.784Z,100.00
2022-08-21T10:15:20.691Z,91.67
2022-08-21T10:17:59.715Z,82.24
2022-08-21T10:20:32.687Z,77.62
2022-08-21T10:23:11.224Z,83.60
2022-08-21T10:25:56.273Z,83.63
2022-08-21T10:28:37.817Z,87.30
2022-08-21T10:31:29.303Z,100.00
2022-08-21T10:34:12.659Z,100.00
2022-08-21T10:36:50.577Z,100.00
2022-08-21T10:39:35.731Z,100.00
2022-08-21T10:42:33.463Z,100.00
2022-08-21T10:45:16.938Z,100.00
2022-08-21T10:47:49.955Z,100.00
2022-08-21T10:50:30.687Z,95.51
2022-08-21T10:53:13.732Z,77.37
2022-08-21T10:55:45.725Z,76.65
2022-08-21T10:58:16.528Z,82.44
2022-08-21T11:00:51.569Z,100.00
2022-08-21T11:03:26.165Z,100.00
2022-08-21T11:05:55.723Z,100.00
2022-08-21T11:08:27.046Z,98.02
2022-08-21T11:11:01.515Z,84.04
2022-08-21T11:13:39.295Z,83.24
2022-08-21T11:16:12.927Z,82.52
2022-08-21T11:18:45.886Z,77.66
2022-08-21T11:21:29.363Z,73.86
2022-08-21T11:24:04.629Z,76.09
2022-08-21T11:26:53.064Z,73.62
2022-08-21T11:29:25.671Z,73.70
2022-08-21T11:32:14.476Z,75.68
2022-08-21T11:34:58.214Z,70.09
2022-08-21T11:37:48.911Z,78.71
2022-08-21T11:40:26.566Z,74.79
2022-08-21T11:43:02.419Z,80.57
2022-08-21T11:45:41.727Z,71.55
2022-08-21T11:48:18.974Z,60.28
2022-08-21T11:50:50.588Z,59.17
2022-08-21T11:53:22.303Z,59.07
2022-08-21T11:55:55.114Z,68.65
2022-08-21T11:58:27.670Z,64.40
2022-08-21T12:00:59.290Z,65.89
2022-08-21T12:03:31.001Z,66.02
2022-08-21T12:06:03.863Z,61.61
2022-08-21T12:08:35.797Z,64.09
2022-08-21T12:11:08.638Z,60.81
2022-08-21T12:13:42.704Z,53.92
2022-08-21T12:16:13.171Z,55.60
2022-08-21T12:18:41.114Z,61.00
2022-08-21T12:21:23.862Z,58.44
2022-08-21T12:24:02.562Z,53.67
2022-08-21T12:26:32.724Z,58.01
2022-08-21T12:29:12.643Z,55.99
2022-08-21T12:31:51.968Z,60.47
2022-08-21T12:34:21.904Z,79.23
2022-08-21T12:36:57.547Z,75.07
2022-08-21T12:39:29.483Z,67.10
2022-08-21T12:42:02.442Z,69.47
2022-08-21T12:44:36.558Z,62.70
2022-08-21T12:47:07.140Z,54.09
2022-08-21T12:49:39.004Z,45.97
2022-08-21T12:52:15.975Z,46.60
2022-08-21T12:54:45.774Z,48.43
2022-08-21T12:57:23.088Z,47.86
2022-08-21T12:59:59.388Z,52.11
2022-08-21T13:02:30.454Z,52.04
2022-08-21T13:04:58.965Z,49.07
2022-08-21T13:07:31.442Z,44.97
2022-08-21T13:10:02.423Z,43.29
2022-08-21T13:12:32.471Z,44.39
2022-08-21T13:15:02.466Z,52.70
2022-08-21T13:17:34.218Z,62.63
2022-08-21T13:20:04.828Z,67.98
2022-08-21T13:22:37.811Z,68.06
2022-08-21T13:25:11.990Z,70.92
2022-08-21T13:27:39.747Z,64.57
2022-08-21T13:30:11.986Z,54.68
2022-08-21T13:32:46.024Z,50.78
2022-08-21T13:35:17.648Z,43.77
2022-08-21T13:37:49.126Z,41.01
2022-08-21T13:40:19.597Z,42.82
2022-08-21T13:42:49.230Z,42.28
2022-08-21T13:45:20.859Z,44.34
2022-08-21T13:47:49.484Z,42.09
2022-08-21T13:50:20.002Z,47.50
2022-08-21T13:52:58.833Z,49.74
2022-08-21T13:55:28.494Z,51.37
2022-08-21T13:58:03.070Z,49.63
2022-08-21T14:00:36.006Z,50.93
2022-08-21T14:03:07.833Z,50.80
2022-08-21T14:05:38.911Z,51.50
2022-08-21T14:08:12.679Z,47.59
2022-08-21T14:10:45.797Z,47.52
2022-08-21T14:13:31.529Z,50.63
2022-08-21T14:16:02.615Z,50.95
2022-08-21T14:18:30.748Z,51.19
2022-08-21T14:21:07.333Z,51.90
2022-08-21T14:23:36.149Z,51.61
2022-08-21T14:26:07.681Z,49.90
2022-08-21T14:28:39.562Z,49.83
2022-08-21T14:31:18.092Z,49.54
2022-08-21T14:33:47.217Z,50.00
2022-08-21T14:36:14.919Z,51.67
2022-08-21T14:38:44.260Z,52.82
2022-08-21T14:41:18.114Z,48.59
2022-08-21T14:43:47.123Z,45.23
2022-08-21T14:46:15.737Z,44.92
2022-08-21T14:48:43.764Z,46.63
2022-08-21T14:51:11.396Z,46.78
2022-08-21T14:53:38.912Z,50.30
2022-08-21T14:56:08.579Z,50.84
2022-08-21T14:58:39.010Z,50.35
2022-08-21T15:01:08.095Z,49.31
2022-08-21T15:03:36.358Z,46.40
2022-08-21T15:06:05.903Z,44.09
2022-08-21T15:08:34.046Z,43.73
2022-08-21T15:11:42.259Z,41.86
2022-08-21T15:13:57.251Z,42.56
2022-08-21T15:16:25.000Z,43.81
2022-08-21T15:18:52.604Z,39.31
2022-08-21T15:21:20.154Z,38.90
2022-08-21T15:23:47.813Z,41.25
2022-08-21T15:26:15.696Z,41.26
2022-08-21T15:28:43.332Z,40.60
2022-08-21T15:31:12.201Z,39.27
2022-08-21T15:33:39.684Z,37.73
2022-08-21T15:36:07.662Z,39.60
2022-08-21T15:38:35.304Z,41.27
2022-08-21T15:41:04.352Z,40.07
2022-08-21T15:43:40.126Z,40.10
2022-08-21T15:46:07.728Z,40.47
2022-08-21T15:48:36.612Z,40.39
2022-08-21T15:51:04.267Z,39.93
2022-08-21T15:53:32.928Z,40.29
2022-08-21T15:56:03.716Z,39.88
2022-08-21T15:58:31.237Z,42.19
2022-08-21T16:01:01.638Z,42.26
2022-08-21T16:03:29.919Z,39.40
2022-08-21T16:05:58.763Z,39.42
2022-08-21T16:08:26.576Z,40.97
2022-08-21T16:10:54.961Z,41.25
2022-08-21T16:13:26.892Z,43.57
2022-08-21T16:15:54.565Z,42.76
2022-08-21T16:18:24.048Z,43.66
2022-08-21T16:20:51.636Z,42.75
2022-08-21T16:23:20.511Z,42.78
2022-08-21T16:25:48.950Z,42.55
2022-08-21T16:28:19.040Z,41.68
2022-08-21T16:30:49.207Z,42.12
2022-08-21T16:33:25.023Z,41.91
2022-08-21T16:35:52.798Z,42.34
2022-08-21T16:38:21.859Z,42.56
2022-08-21T16:40:49.422Z,42.95
2022-08-21T16:43:17.485Z,44.11
2022-08-21T16:45:45.162Z,44.65
2022-08-21T16:48:12.688Z,44.69
2022-08-21T16:50:40.332Z,45.09
2022-08-21T16:53:08.555Z,45.47
2022-08-21T16:55:38.250Z,45.82
2022-08-21T16:58:11.311Z,44.96
2022-08-21T17:00:38.837Z,44.63
2022-08-21T17:03:06.407Z,43.50
2022-08-21T17:05:33.904Z,45.00
2022-08-21T17:08:01.445Z,43.29
2022-08-21T17:10:28.966Z,44.73
2022-08-21T17:13:00.807Z,42.46
2022-08-21T17:15:39.111Z,42.51
2022-08-21T17:18:09.947Z,43.24
2022-08-21T17:20:37.677Z,43.83
2022-08-21T17:23:06.483Z,41.87
2022-08-21T17:25:34.659Z,40.77
2022-08-21T17:28:04.235Z,41.84
2022-08-21T17:30:31.838Z,42.75
2022-08-21T17:33:01.015Z,40.53
2022-08-21T17:35:28.662Z,40.60
2022-08-21T17:37:57.039Z,40.83
2022-08-21T17:40:24.988Z,41.18
2022-08-21T17:42:52.630Z,40.33
2022-08-21T17:45:22.098Z,42.51
2022-08-21T17:47:49.650Z,43.36
2022-08-21T17:50:22.867Z,43.63
2022-08-21T17:52:50.687Z,44.31
2022-08-21T17:55:20.273Z,45.42
2022-08-21T17:57:50.878Z,46.43
2022-08-21T18:00:20.444Z,48.24
2022-08-21T18:02:57.559Z,49.60
2022-08-21T18:05:25.186Z,50.21
2022-08-21T18:07:52.715Z,51.13
2022-08-21T18:10:20.295Z,52.85
2022-08-21T18:12:47.988Z,53.72
2022-08-21T18:15:19.008Z,55.11
2022-08-21T18:17:51.224Z,56.08
2022-08-21T18:20:20.911Z,57.47
2022-08-21T18:22:48.655Z,59.02
2022-08-21T18:25:17.245Z,61.65
2022-08-21T18:27:46.693Z,68.89
2022-08-21T18:30:16.702Z,71.04
2022-08-21T18:32:44.750Z,71.68
2022-08-21T18:35:15.487Z,73.06
2022-08-21T18:37:42.999Z,73.83
2022-08-21T18:40:11.791Z,74.50
2022-08-21T18:42:43.303Z,76.42
2022-08-21T18:45:22.971Z,77.78
2022-08-21T18:47:53.321Z,80.70
2022-08-21T18:50:26.425Z,82.75
2022-08-21T18:52:54.501Z,83.09
2022-08-21T18:55:24.701Z,85.43
2022-08-21T18:57:52.531Z,87.71
2022-08-21T19:00:26.612Z,90.86
2022-08-21T19:02:54.766Z,91.31
2022-08-21T19:05:25.251Z,91.74
2022-08-21T19:07:55.023Z,92.62
2022-08-21T19:13:12.385Z,95.63
2022-08-21T19:15:42.446Z,97.14
2022-08-21T19:18:13.028Z,97.81
2022-08-21T19:20:44.539Z,100.00
2022-08-21T19:23:17.357Z,100.00
2022-08-21T19:25:51.719Z,100.00
2022-08-21T19:28:27.034Z,100.00
2022-08-21T19:30:58.400Z,100.00
2022-08-21T19:33:36.278Z,100.00
2022-08-21T19:36:06.100Z,100.00
2022-08-21T19:38:33.955Z,100.00
2022-08-21T19:41:02.543Z,100.00
2022-08-21T19:43:32.623Z,100.00
2022-08-21T19:46:01.711Z,100.00
2022-08-21T19:48:29.262Z,100.00
2022-08-21T19:50:56.771Z,100.00
2022-08-21T19:53:26.538Z,100.00
2022-08-21T19:55:54.571Z,100.00
2022-08-21T19:58:29.217Z,100.00
2022-08-21T20:00:56.760Z,100.00
2022-08-21T20:03:24.495Z,100.00
2022-08-21T20:05:52.166Z,100.00
2022-08-21T20:08:21.787Z,100.00
2022-08-21T20:10:51.551Z,100.00
2022-08-21T20:13:21.565Z,100.00
2022-08-21T20:15:50.114Z,100.00
2022-08-21T20:18:18.627Z,100.00
2022-08-21T20:20:47.719Z,100.00
2022-08-21T20:23:17.309Z,100.00
2022-08-21T20:25:59.391Z,100.00
2022-08-21T20:28:27.080Z,100.00
2022-08-21T20:30:56.418Z,100.00
2022-08-21T20:33:23.961Z,100.00
2022-08-21T20:35:52.199Z,100.00
2022-08-21T20:38:20.410Z,100.00
2022-08-21T20:40:50.530Z,100.00
2022-08-21T20:43:20.838Z,100.00
2022-08-21T20:45:49.627Z,100.00
2022-08-21T20:48:23.782Z,100.00
2022-08-21T20:51:06.736Z,100.00
2022-08-21T20:53:43.460Z,100.00
2022-08-21T20:56:16.394Z,100.00
2022-08-21T20:58:56.069Z,100.00
2022-08-21T21:01:24.279Z,100.00
2022-08-21T21:03:56.931Z,100.00
2022-08-21T21:06:29.115Z,100.00
2022-08-21T21:09:05.397Z,100.00
2022-08-21T21:11:38.310Z,100.00
2022-08-21T21:14:12.312Z,100.00
2022-08-21T21:16:45.900Z,100.00
2022-08-21T21:19:26.604Z,100.00
2022-08-21T21:21:59.527Z,98.66
2022-08-21T21:24:32.940Z,96.23
2022-08-21T21:27:11.625Z,96.13
2022-08-21T21:29:46.146Z,95.45
2022-08-21T21:32:17.774Z,97.20
2022-08-21T21:34:50.939Z,100.00
2022-08-21T21:37:25.868Z,100.00
2022-08-21T21:40:01.568Z,100.00
2022-08-21T21:42:38.253Z,100.00
2022-08-21T21:45:21.100Z,100.00
2022-08-21T21:48:04.134Z,100.00
2022-08-21T21:50:49.402Z,100.00
2022-08-21T21:53:35.524Z,100.00
2022-08-21T21:56:16.440Z,100.00
2022-08-21T21:59:09.806Z,100.00
2022-08-21T22:01:46.814Z,100.00
2022-08-21T22:04:23.572Z,100.00
2022-08-21T22:07:06.164Z,100.00
2022-08-21T22:09:44.304Z,100.00
2022-08-21T22:12:28.720Z,100.00
2022-08-21T22:14:56.547Z,100.00
2022-08-21T22:17:34.933Z,100.00
2022-08-21T22:20:08.543Z,100.00
2022-08-21T22:22:40.530Z,100.00
2022-08-21T22:25:18.358Z,100.00
2022-08-21T22:27:50.036Z,100.00
2022-08-21T22:30:37.490Z,100.00
2022-08-21T22:33:14.312Z,100.00
2022-08-21T22:35:42.157Z,100.00
2022-08-21T22:38:19.647Z,100.00
2022-08-21T22:40:50.508Z,100.00
2022-08-21T22:43:20.943Z,100.00
2022-08-21T22:45:58.780Z,100.00
2022-08-21T22:51:30.037Z,100.00
2022-08-21T22:54:00.994Z,100.00
2022-08-21T22:56:32.550Z,100.00
2022-08-21T22:59:03.555Z,100.00
2022-08-21T23:01:36.409Z,100.00
2022-08-21T23:04:18.632Z,100.00
2022-08-21T23:06:49.312Z,100.00
2022-08-21T23:09:29.427Z,100.00
2022-08-21T23:11:59.417Z,100.00
2022-08-21T23:14:28.993Z,100.00
2022-08-21T23:17:00.679Z,100.00
2022-08-21T23:19:39.377Z,100.00
2022-08-21T23:22:21.154Z,100.00
2022-08-21T23:25:02.364Z,100.00
2022-08-21T23:27:42.283Z,100.00
2022-08-21T23:30:15.137Z,100.00
2022-08-21T23:33:01.940Z,100.00
2022-08-21T23:35:51.814Z,100.00
2022-08-21T23:38:33.100Z,100.00
2022-08-21T23:41:11.419Z,100.00
2022-08-21T23:43:52.015Z,100.00
2022-08-21T23:46:43.842Z,100.00
2022-08-21T23:49:25.645Z,100.00
2022-08-21T23:52:06.896Z,100.00
2022-08-21T23:54:45.822Z,100.00
2022-08-21T23:57:31.882Z,100.00
